Time;durP1;ratioP1;P1;durP2;ratioP2;P2;SDS_P1;SDS_P2;PMS_P1;PMS_P2;Temp;Humidity;BMP_temperature;BMP_pressure;BME280_temperature;BME280_humidity;BME280_pressure;Samples;Min_cycle;Max_cycle;Signal;HPM_P1;HPM_P2
2022/06/23 00:00:37;;;;;;;13.63;5.87;;;16.70;1.00;;;16.83;67.80;100788.22;5014636;28;20444;-73
2022/06/23 00:03:08;;;;;;;9.27;4.90;;;16.70;1.00;;;16.69;68.07;100806.00;5011874;28;20531;-72
2022/06/23 00:05:42;;;;;;;6.90;5.30;;;16.60;1.00;;;16.76;67.85;100795.75;5013613;28;20820;-73
2022/06/23 00:08:16;;;;;;;7.57;5.10;;;16.70;1.00;;;16.76;68.06;100798.47;5015005;28;20485;-73
2022/06/23 00:10:51;;;;;;;8.80;5.40;;;16.60;1.00;;;16.65;68.15;100802.09;5010277;28;20494;-73
2022/06/23 00:13:27;;;;;;;6.47;5.87;;;16.60;1.00;;;16.60;68.39;100804.75;4998092;28;20472;-72
2022/06/23 00:15:56;;;;;;;5.60;5.17;;;16.50;1.00;;;16.69;68.15;100799.72;5010252;28;20491;-73
2022/06/23 00:18:31;;;;;;;7.10;5.50;;;16.50;1.00;;;16.65;68.17;100796.63;5009776;28;20424;-72
2022/06/23 00:21:05;;;;;;;6.10;4.80;;;16.50;1.00;;;16.68;68.18;100792.56;5007255;28;20426;-73
2022/06/23 00:23:41;;;;;;;6.37;5.73;;;16.60;1.00;;;16.66;68.27;100801.00;5010594;28;20573;-74
2022/06/23 00:26:15;;;;;;;8.00;5.60;;;16.50;1.00;;;16.53;68.68;100806.75;5014761;28;20764;-72
2022/06/23 00:28:49;;;;;;;6.90;5.30;;;16.50;1.00;;;16.37;69.12;100807.50;5006162;28;20468;-73
2022/06/23 00:31:30;;;;;;;6.03;5.07;;;16.40;1.00;;;16.36;69.25;100814.84;5010322;28;20495;-73
2022/06/23 00:34:03;;;;;;;13.63;6.60;;;16.30;1.00;;;16.33;69.41;100811.78;4988263;28;20492;-73
2022/06/23 00:36:38;;;;;;;7.53;5.47;;;16.30;1.00;;;16.40;69.15;100812.50;5013264;28;20426;-73
2022/06/23 00:39:28;;;;;;;9.10;6.13;;;16.30;1.00;;;16.32;69.59;100812.84;5042426;23;21000;-73
2022/06/23 00:41:57;;;;;;;7.20;5.40;;;16.30;1.00;;;16.30;69.61;100812.28;5033153;28;20809;-71
2022/06/23 00:44:35;;;;;;;7.30;5.93;;;16.30;1.00;;;16.32;69.65;100810.13;5037825;28;20476;-71
2022/06/23 00:47:13;;;;;;;9.77;5.40;;;16.20;1.00;;;16.23;70.06;100811.56;5027417;28;20430;-71
2022/06/23 00:49:53;;;;;;;9.63;5.43;;;16.20;1.00;;;16.29;69.67;100816.09;5022237;28;20446;-71
2022/06/23 00:52:32;;;;;;;5.60;5.10;;;16.20;1.00;;;16.29;69.90;100810.63;5045018;22;20496;-67
2022/06/23 00:55:14;;;;;;;10.33;6.40;;;16.10;1.00;;;16.19;70.05;100821.31;5009840;28;20428;-68
2022/06/23 00:57:50;;;;;;;7.20;5.63;;;16.10;1.00;;;16.08;70.39;100810.19;5008286;28;20436;-68
2022/06/23 01:00:25;;;;;;;7.07;5.17;;;16.00;1.00;;;16.08;70.54;100818.38;5012618;28;20895;-68
2022/06/23 01:03:02;;;;;;;8.63;5.70;;;16.00;1.00;;;16.08;70.63;100818.38;4998794;28;20510;-67
2022/06/23 01:05:39;;;;;;;6.53;5.10;;;16.00;1.00;;;16.09;70.72;100817.31;4992485;28;20449;-67
2022/06/23 01:08:21;;;;;;;8.90;6.50;;;16.00;1.00;;;15.94;70.88;100818.88;4992817;28;20525;-68
2022/06/23 01:11:03;;;;;;;6.67;5.60;;;15.90;1.00;;;15.94;71.19;100824.31;4989968;28;20472;-68
2022/06/23 01:13:40;;;;;;;10.73;5.83;;;15.90;1.00;;;15.89;71.45;100822.31;4992842;28;20471;-68
2022/06/23 01:16:17;;;;;;;8.93;5.70;;;15.80;1.00;;;15.85;71.58;100821.13;4992525;28;20449;-68
2022/06/23 01:18:55;;;;;;;10.60;5.53;;;15.80;1.00;;;15.79;71.77;100827.53;4993592;28;20469;-67
2022/06/23 01:21:33;;;;;;;7.53;5.50;;;15.80;1.00;;;15.73;71.76;100823.06;4989217;28;20480;-68
2022/06/23 01:24:26;;;;;;;10.13;5.30;;;15.70;1.00;;;15.82;71.71;100821.63;4991761;28;20420;-67
2022/06/23 01:27:19;;;;;;;9.83;6.83;;;15.80;1.00;;;15.83;71.52;100820.53;4992042;28;20446;-68
2022/06/23 01:29:58;;;;;;;9.17;5.23;;;15.80;1.00;;;15.76;71.73;100817.13;4996062;28;20437;-68
2022/06/23 01:32:33;;;;;;;7.23;5.70;;;15.70;1.00;;;15.80;71.59;100818.28;4992971;28;20478;-67
2022/06/23 01:35:14;;;;;;;6.80;5.93;;;15.70;1.00;;;15.75;71.76;100814.63;4992627;28;20441;-67
2022/06/23 01:37:52;;;;;;;11.63;7.00;;;15.70;1.00;;;15.67;72.23;100812.25;4994006;28;20453;-67
2022/06/23 01:40:27;;;;;;;9.37;6.80;;;15.60;1.00;;;15.60;72.31;100812.38;4992294;28;20446;-68
2022/06/23 01:43:04;;;;;;;7.67;6.67;;;15.60;1.00;;;15.56;72.49;100816.63;4994445;28;20420;-68
2022/06/23 01:45:44;;;;;;;5.90;4.80;;;15.50;1.00;;;15.59;72.59;100816.16;4993592;28;20444;-67
2022/06/23 01:48:51;;;;;;;5.47;4.90;;;15.50;1.00;;;15.53;72.75;100811.66;4994594;28;20769;-66
2022/06/23 01:51:23;;;;;;;7.73;6.40;;;15.50;1.00;;;15.56;72.66;100819.38;4994119;28;20629;-68
2022/06/23 01:53:56;;;;;;;6.97;6.27;;;15.50;1.00;;;15.44;73.05;100818.50;4994537;28;20527;-67
2022/06/23 01:56:40;;;;;;;9.00;6.20;;;15.40;1.00;;;15.38;73.44;100822.16;4995567;28;21024;-67
2022/06/23 01:59:37;;;;;;;7.13;6.10;;;15.40;1.00;;;15.48;73.49;100825.97;4994369;28;20444;-67
2022/06/23 02:02:44;;;;;;;7.90;6.47;;;15.40;1.00;;;15.51;73.21;100827.44;5010458;28;20469;-67
2022/06/23 02:05:25;;;;;;;6.67;5.57;;;15.40;1.00;;;15.41;73.82;100821.69;4994910;28;20503;-67
2022/06/23 02:08:03;;;;;;;7.03;5.27;;;15.30;1.00;;;15.26;74.26;100827.59;4999286;28;20429;-67
2022/06/23 02:10:45;;;;;;;6.67;5.87;;;15.20;1.00;;;15.20;74.60;100839.47;4997046;28;20450;-68
2022/06/23 02:13:23;;;;;;;7.10;6.00;;;15.20;1.00;;;15.09;75.17;100830.19;4989670;28;20500;-68
2022/06/23 02:16:03;;;;;;;6.73;5.53;;;15.10;1.00;;;15.01;75.40;100841.41;4996633;28;20472;-67
2022/06/23 02:18:44;;;;;;;7.13;6.13;;;15.10;1.00;;;15.07;75.36;100839.63;4996453;28;20437;-68
2022/06/23 02:21:29;;;;;;;9.40;6.90;;;15.00;1.00;;;15.02;75.44;100843.06;4993338;28;20445;-67
2022/06/23 02:24:08;;;;;;;6.63;5.70;;;15.00;1.00;;;14.88;75.88;100841.59;4985916;28;20544;-67
2022/06/23 02:26:46;;;;;;;8.57;6.30;;;14.90;1.00;;;14.91;76.18;100845.78;4993985;28;20437;-67
2022/06/23 02:29:25;;;;;;;7.20;5.77;;;14.80;1.00;;;14.87;76.12;100850.81;5002499;28;20444;-67
2022/06/23 02:32:03;;;;;;;6.30;5.70;;;14.80;1.00;;;14.86;76.52;100849.19;4993484;28;20460;-67
2022/06/23 02:34:42;;;;;;;14.43;6.90;;;14.80;1.00;;;14.78;76.42;100852.22;4991296;28;20445;-67
2022/06/23 02:37:54;;;;;;;16.03;7.40;;;14.80;1.00;;;14.73;76.47;100857.53;4996123;28;20420;-67
2022/06/23 02:40:33;;;;;;;7.57;6.10;;;14.70;1.00;;;14.83;76.54;100860.53;4996107;28;20543;-67
2022/06/23 02:43:16;;;;;;;9.47;6.57;;;14.70;1.00;;;14.83;76.28;100863.25;4995633;28;20453;-67
2022/06/23 02:46:24;;;;;;;11.57;6.90;;;14.70;1.00;;;14.77;76.47;100856.84;5010363;28;20481;-67
2022/06/23 02:49:29;;;;;;;6.37;5.77;;;14.80;1.00;;;14.70;76.67;100863.44;4988510;28;20592;-68
2022/06/23 02:52:52;;;;;;;8.40;6.20;;;14.70;1.00;;;14.72;76.72;100872.19;4987875;28;20485;-68
2022/06/23 02:55:41;;;;;;;5.37;4.87;;;14.60;1.00;;;14.72;76.54;100874.94;4925455;29;20524;-68
2022/06/23 02:58:16;;;;;;;8.50;6.07;;;14.70;1.00;;;14.74;76.38;100878.25;4934838;29;20599;-68
2022/06/23 03:00:54;;;;;;;9.37;5.53;;;14.70;1.00;;;14.71;76.63;100878.72;4971708;28;20452;-68
2022/06/23 03:03:34;;;;;;;13.23;6.30;;;14.70;1.00;;;14.65;76.77;100883.19;4985661;28;20459;-68
2022/06/23 03:06:14;;;;;;;6.90;5.67;;;14.60;1.00;;;14.70;76.63;100875.19;4990933;28;20733;-69
2022/06/23 03:08:53;;;;;;;9.90;6.37;;;14.60;1.00;;;14.64;76.90;100877.97;5005071;28;20902;-67
2022/06/23 03:14:51;;;;;;;10.03;6.30;;;14.60;1.00;;;14.84;76.01;100881.28;4998654;28;20561;-68
2022/06/23 03:17:28;;;;;;;10.57;5.80;;;14.70;1.00;;;14.77;76.22;100884.06;4998062;28;20871;-68
2022/06/23 03:20:04;;;;;;;12.37;6.70;;;14.70;1.00;;;14.76;76.47;100882.41;4998601;28;20433;-68
2022/06/23 03:22:49;;;;;;;7.20;5.87;;;14.70;1.00;;;14.84;76.06;100889.44;5002386;28;20469;-68
2022/06/23 03:25:28;;;;;;;8.83;7.07;;;14.70;1.00;;;14.92;75.66;100891.84;5003373;28;20445;-68
2022/06/23 03:28:02;;;;;;;8.97;6.33;;;14.70;1.00;;;14.99;75.46;100898.03;4999855;28;20449;-68
2022/06/23 03:30:42;;;;;;;9.03;7.70;;;14.80;1.00;;;15.00;75.25;100894.25;4993060;28;20432;-68
2022/06/23 03:33:21;;;;;;;8.87;7.40;;;14.80;1.00;;;15.05;75.12;100888.94;4983374;28;20470;-68
2022/06/23 03:35:58;;;;;;;10.37;7.10;;;14.80;1.00;;;15.15;74.84;100889.19;4991416;28;20456;-66
2022/06/23 03:41:48;;;;;;;7.30;6.03;;;15.00;1.00;;;16.66;70.83;100899.38;4914227;29;20460;-66
2022/06/23 03:44:26;;;;;;;9.67;7.30;;;15.50;1.00;;;18.46;63.48;100892.84;4983234;28;20492;-67
2022/06/23 03:47:03;;;;;;;8.73;6.37;;;16.20;1.00;;;20.06;58.11;100897.53;4994596;28;20452;-67
2022/06/23 03:49:46;;;;;;;8.83;5.83;;;17.20;1.00;;;21.21;54.77;100901.09;4988920;28;20430;-68
2022/06/23 03:52:24;;;;;;;6.73;5.50;;;18.10;1.00;;;21.87;52.32;100896.47;4989976;28;20513;-69
2022/06/23 03:55:00;;;;;;;5.90;5.17;;;19.10;1.00;;;22.14;50.95;100900.84;4995382;28;20553;-68
2022/06/23 03:57:38;;;;;;;7.30;6.27;;;19.50;1.00;;;22.85;49.43;100895.97;4996222;28;20529;-68
2022/06/23 04:00:29;;;;;;;8.60;5.97;;;20.00;1.00;;;23.35;48.21;100901.19;4983227;28;20781;-68
2022/06/23 04:03:17;;;;;;;6.40;5.80;;;20.10;1.00;;;23.40;47.53;100903.06;4991117;28;20454;-67
2022/06/23 04:06:15;;;;;;;7.37;6.67;;;20.40;1.00;;;23.47;47.25;100903.63;4993449;28;20443;-67
2022/06/23 04:09:01;;;;;;;6.70;5.57;;;20.70;1.00;;;24.50;45.18;100903.19;4989822;28;20413;-68
2022/06/23 04:11:44;;;;;;;7.83;5.97;;;21.00;1.00;;;24.58;44.62;100913.63;5008575;28;20450;-69
2022/06/23 04:14:39;;;;;;;6.37;5.87;;;21.60;1.00;;;24.48;44.85;100912.91;4996633;28;20452;-67
2022/06/23 04:17:18;;;;;;;6.60;6.00;;;21.50;1.00;;;24.94;43.65;100924.25;4991945;28;20416;-68
2022/06/23 04:19:53;;;;;;;11.63;6.30;;;21.90;1.00;;;24.87;44.25;100921.06;4994697;28;20412;-67
2022/06/23 04:22:30;;;;;;;7.90;5.40;;;21.60;1.00;;;25.78;42.69;100930.81;4991745;28;20966;-69
2022/06/23 04:25:05;;;;;;;6.73;6.10;;;22.30;1.00;;;26.13;41.33;100927.44;4993189;28;20416;-67
2022/06/23 04:27:45;;;;;;;6.00;4.83;;;22.80;1.00;;;25.93;41.76;100936.91;4990117;28;20528;-68
2022/06/23 04:30:34;;;;;;;6.97;4.70;;;22.70;1.00;;;26.27;41.03;100939.41;4992611;28;20446;-69
2022/06/23 04:33:08;;;;;;;5.87;4.43;;;22.70;1.00;;;26.06;41.11;100949.16;4981224;28;20432;-68
2022/06/23 04:35:40;;;;;;;4.47;4.00;;;23.30;1.00;;;26.30;40.59;100949.03;4989000;28;20431;-68
2022/06/23 04:38:20;;;;;;;6.03;4.70;;;23.70;1.00;;;25.81;41.46;100947.66;5007737;28;20481;-70
2022/06/23 04:40:57;;;;;;;6.43;5.83;;;23.30;1.00;;;26.38;40.44;100943.59;4989313;28;20447;-69
2022/06/23 04:43:36;;;;;;;6.00;5.40;;;23.70;1.00;;;26.09;40.47;100945.81;4992758;28;20469;-68
2022/06/23 04:46:15;;;;;;;7.70;5.10;;;23.80;1.00;;;26.76;39.68;100947.03;4994567;28;20416;-68
2022/06/23 04:49:00;;;;;;;5.90;5.40;;;23.80;1.00;;;27.14;38.83;100949.59;4992167;28;20434;-68
2022/06/23 04:51:35;;;;;;;6.27;5.67;;;24.40;1.00;;;26.58;40.19;100949.88;4991879;28;20399;-68
2022/06/23 04:54:15;;;;;;;5.80;5.30;;;24.00;1.00;;;26.76;39.64;100954.53;4992558;28;20444;-68
2022/06/23 04:56:50;;;;;;;5.20;4.60;;;23.80;1.00;;;26.90;39.03;100952.63;4992559;28;20512;-68
2022/06/23 04:59:37;;;;;;;5.30;4.80;;;24.00;1.00;;;27.46;38.26;100954.97;4992652;28;20418;-69
2022/06/23 05:02:27;;;;;;;5.83;5.23;;;24.10;1.00;;;27.88;37.47;100956.50;4973151;28;20449;-69
2022/06/23 05:05:06;;;;;;;5.80;5.07;;;24.10;1.00;;;28.15;37.14;100958.31;4992771;28;20801;-68
2022/06/23 05:07:47;;;;;;;4.93;4.43;;;24.40;1.00;;;27.81;37.20;100956.09;4993175;28;20528;-69
2022/06/23 05:10:23;;;;;;;5.33;3.50;;;24.10;1.00;;;28.58;35.66;100964.09;4993927;28;20446;-69
2022/06/23 05:12:57;;;;;;;6.13;4.93;;;24.50;1.00;;;28.54;35.89;100963.13;4989634;28;20436;-70
2022/06/23 05:15:33;;;;;;;5.60;5.10;;;25.30;1.00;;;28.02;37.34;100967.53;4992066;28;20467;-68
2022/06/23 05:18:16;;;;;;;4.73;3.87;;;25.10;1.00;;;28.43;36.34;100967.31;4992016;28;20441;-68
2022/06/23 05:20:53;;;;;;;8.30;4.97;;;25.10;1.00;;;28.58;35.91;100963.28;4985944;28;20852;-68
2022/06/23 05:23:28;;;;;;;5.93;4.70;;;25.10;1.00;;;28.19;36.64;100972.41;4990846;28;20612;-69
2022/06/23 05:26:08;;;;;;;5.83;4.23;;;25.20;1.00;;;27.66;37.13;100970.38;4992484;28;20437;-68
2022/06/23 05:28:38;;;;;;;4.40;3.87;;;25.20;1.00;;;27.41;37.56;100968.16;4982786;28;20469;-68
2022/06/23 05:31:17;;;;;;;8.17;4.97;;;24.70;1.00;;;28.19;36.77;100970.47;4999397;28;20934;-69
2022/06/23 05:33:53;;;;;;;5.07;4.50;;;25.00;1.00;;;28.18;36.76;100971.59;4989572;28;20473;-68
2022/06/23 05:36:26;;;;;;;5.87;4.90;;;24.90;1.00;;;28.05;36.04;100964.94;5004565;28;20457;-71
2022/06/23 05:39:03;;;;;;;8.20;4.60;;;25.30;1.00;;;26.65;38.62;100973.34;4987560;28;20446;-71
2022/06/23 05:41:37;;;;;;;5.67;4.67;;;24.60;1.00;;;23.94;44.17;100969.28;4989773;28;20503;-67
2022/06/23 05:44:16;;;;;;;4.63;4.23;;;23.50;1.00;;;22.03;48.30;100969.75;4990681;28;20437;-68
2022/06/23 05:46:50;;;;;;;8.47;5.00;;;22.10;1.00;;;21.11;51.11;100973.41;4991959;28;20488;-68
2022/06/23 05:49:26;;;;;;;7.90;4.17;;;21.30;1.00;;;20.53;53.45;100974.50;4992226;28;20413;-67
2022/06/23 05:52:01;;;;;;;5.23;4.50;;;20.60;1.00;;;20.43;53.49;100984.66;4992003;28;20459;-70
2022/06/23 05:54:39;;;;;;;5.93;4.07;;;20.30;1.00;;;20.30;53.28;100977.63;4988158;28;20471;-68
2022/06/23 05:57:20;;;;;;;5.33;4.00;;;20.10;1.00;;;20.25;52.72;100978.44;4987280;28;20792;-68
2022/06/23 06:00:07;;;;;;;7.43;4.17;;;20.00;1.00;;;20.36;52.71;100979.38;4991935;28;20515;-66
2022/06/23 06:02:46;;;;;;;8.00;5.27;;;20.10;1.00;;;20.47;51.57;100980.28;4992312;28;20436;-68
2022/06/23 06:05:28;;;;;;;5.70;4.10;;;20.10;1.00;;;20.46;50.87;100984.94;4991458;28;20436;-70
2022/06/23 06:08:01;;;;;;;6.83;4.30;;;20.20;1.00;;;20.45;51.37;100998.94;4993024;28;20475;-68
2022/06/23 06:10:34;;;;;;;4.60;3.83;;;20.30;1.00;;;20.34;51.98;100992.53;4992173;28;20444;-69
2022/06/23 06:13:14;;;;;;;8.50;5.00;;;20.10;1.00;;;20.57;51.25;100996.84;4991963;28;20459;-70
2022/06/23 06:15:50;;;;;;;4.33;3.93;;;20.30;1.00;;;20.61;51.38;100995.19;4991777;28;20440;-69
2022/06/23 06:18:25;;;;;;;6.07;4.20;;;20.40;1.00;;;20.62;50.92;100989.41;4991869;28;20409;-70
2022/06/23 06:21:00;;;;;;;5.40;3.80;;;20.40;1.00;;;20.57;51.17;100999.56;4988709;28;20423;-67
2022/06/23 06:23:42;;;;;;;4.77;4.37;;;20.40;1.00;;;20.86;51.42;101005.50;4998551;28;20446;-68
2022/06/23 06:26:18;;;;;;;4.90;4.40;;;20.60;1.00;;;20.83;50.81;101006.84;4994087;28;20430;-69
2022/06/23 06:28:47;;;;;;;4.10;3.53;;;20.60;1.00;;;20.95;50.58;101001.16;4994016;28;20408;-70
2022/06/23 06:31:27;;;;;;;4.47;4.07;;;20.60;1.00;;;21.02;50.85;100994.28;5001273;28;20428;-69
2022/06/23 06:34:10;;;;;;;7.60;4.53;;;20.70;1.00;;;21.03;51.11;101001.47;5002632;28;20511;-67
2022/06/23 06:36:45;;;;;;;7.17;3.90;;;20.80;1.00;;;21.28;50.20;101008.19;4975072;28;20511;-68
2022/06/23 06:39:21;;;;;;;7.27;4.80;;;21.00;1.00;;;21.26;50.01;101005.69;4991117;28;20422;-68
2022/06/23 06:42:02;;;;;;;6.40;4.30;;;21.00;1.00;;;21.39;49.95;100996.13;5002053;28;20758;-69
2022/06/23 06:44:32;;;;;;;4.10;3.70;;;21.10;1.00;;;21.50;48.91;101006.03;5000311;28;20416;-68
2022/06/23 06:47:02;;;;;;;7.43;3.80;;;21.30;1.00;;;21.64;48.75;101002.47;4999498;28;20975;-69
2022/06/23 06:49:32;;;;;;;4.70;3.53;;;21.30;1.00;;;21.55;48.48;101006.88;5000896;28;20448;-69
2022/06/23 06:52:03;;;;;;;4.40;4.00;;;21.30;1.00;;;21.63;47.84;101005.53;5009051;23;20579;-72
2022/06/23 06:54:42;;;;;;;4.70;3.37;;;21.40;1.00;;;21.69;47.77;101007.19;4985546;28;20943;-71
2022/06/23 06:57:21;;;;;;;3.20;2.80;;;21.50;1.00;;;21.90;47.30;101008.88;4995140;28;20424;-71
2022/06/23 07:00:00;;;;;;;4.93;3.80;;;21.60;1.00;;;21.91;47.24;101007.78;4989313;28;20406;-71
2022/06/23 07:02:38;;;;;;;3.47;3.17;;;21.70;1.00;;;22.08;47.39;101007.50;4979724;28;20459;-72
2022/06/23 07:05:24;;;;;;;4.97;3.50;;;21.80;1.00;;;22.32;46.17;100996.75;4971891;28;20661;-72
2022/06/23 07:08:05;;;;;;;2.90;2.60;;;22.00;1.00;;;22.31;46.44;101006.97;4975056;28;20831;-71
2022/06/23 07:10:44;;;;;;;4.33;3.50;;;22.00;1.00;;;22.33;46.55;101007.50;4973186;28;20417;-71
2022/06/23 07:13:29;;;;;;;6.03;4.30;;;22.20;1.00;;;22.44;46.20;101005.56;4971572;28;20532;-71
2022/06/23 07:16:07;;;;;;;3.13;2.60;;;22.30;1.00;;;22.51;46.05;101006.13;4967811;28;20437;-71
2022/06/23 07:18:50;;;;;;;4.10;3.10;;;22.30;1.00;;;22.72;46.20;101002.22;4980046;28;20438;-72
2022/06/23 07:21:25;;;;;;;4.07;3.40;;;22.40;1.00;;;22.79;45.36;101007.47;4973758;28;20469;-71
2022/06/23 07:24:12;;;;;;;3.87;3.17;;;22.60;1.00;;;22.86;45.20;101011.56;4974934;28;20453;-73
2022/06/23 07:26:48;;;;;;;4.53;3.03;;;22.60;1.00;;;22.72;45.51;101007.75;4973127;28;20585;-72
2022/06/23 07:29:55;;;;;;;3.80;2.80;;;22.60;1.00;;;22.79;45.29;101004.69;4973803;28;20440;-72
2022/06/23 07:32:39;;;;;;;3.70;3.30;;;22.60;1.00;;;23.06;45.24;101007.06;4969468;28;20437;-71
2022/06/23 07:35:26;;;;;;;6.20;3.17;;;22.80;1.00;;;23.34;45.16;101003.63;4977415;28;20458;-72
2022/06/23 07:38:08;;;;;;;4.07;3.17;;;23.00;1.00;;;23.50;43.56;101007.16;4975100;28;20517;-72
2022/06/23 07:40:52;;;;;;;3.60;3.30;;;23.20;1.00;;;23.55;44.08;100998.84;4972506;28;20865;-70
2022/06/23 07:43:33;;;;;;;3.93;3.53;;;23.30;1.00;;;23.49;43.89;101000.81;4952169;28;20466;-73
2022/06/23 07:46:03;;;;;;;3.17;2.87;;;23.40;1.00;;;23.51;44.43;101006.06;4969529;28;20767;-70
2022/06/23 07:48:35;;;;;;;5.90;3.60;;;23.30;1.00;;;23.46;44.50;101006.09;4973774;28;20804;-72
2022/06/23 07:51:08;;;;;;;5.83;3.60;;;23.30;1.00;;;23.70;43.20;101007.03;4972873;28;20417;-71
2022/06/23 07:53:44;;;;;;;8.13;3.40;;;23.50;1.00;;;23.81;43.51;101003.94;4953444;28;20566;-70
2022/06/23 07:56:19;;;;;;;4.37;3.70;;;23.60;1.00;;;23.83;42.91;101012.75;4957026;28;20473;-73
2022/06/23 07:58:53;;;;;;;4.07;3.60;;;23.70;1.00;;;24.00;43.11;101003.22;4976117;28;20435;-72
2022/06/23 08:01:29;;;;;;;3.37;3.03;;;23.80;1.00;;;24.31;42.05;101001.88;4958334;28;20466;-71
2022/06/23 08:04:09;;;;;;;5.32;3.60;;;24.00;1.00;;;24.48;42.33;101006.97;4975685;28;20707;-71
2022/06/23 08:07:09;;;;;;;3.37;3.07;;;24.10;1.00;;;24.63;42.33;101004.88;4978332;28;20246;-74
2022/06/23 08:09:48;;;;;;;3.77;3.00;;;24.20;1.00;;;24.69;42.16;100997.31;4971147;28;20434;-71
2022/06/23 08:18:20;;;;;;;3.43;3.07;;;24.70;1.00;;;25.37;40.99;101008.97;4968732;28;20537;-71
2022/06/23 08:20:59;;;;;;;4.20;3.67;;;25.00;1.00;;;25.42;40.58;101003.34;4976355;28;20453;-71
2022/06/23 08:23:35;;;;;;;5.03;3.57;;;25.10;1.00;;;25.22;40.89;101003.66;4968449;28;20438;-71
2022/06/23 08:26:07;;;;;;;4.20;3.10;;;25.10;1.00;;;25.27;41.52;101002.78;4971766;28;20920;-71
2022/06/23 08:28:39;;;;;;;3.97;3.47;;;25.10;1.00;;;25.43;41.24;101006.97;4966401;28;20814;-71
2022/06/23 08:31:09;;;;;;;6.90;3.60;;;25.20;1.00;;;25.40;41.17;101002.84;4972196;28;20801;-71
2022/06/23 08:33:38;;;;;;;5.00;3.83;;;25.10;1.00;;;25.58;41.17;101008.72;4970063;28;20450;-73
2022/06/23 08:36:12;;;;;;;4.63;2.87;;;25.30;1.00;;;25.56;39.94;101003.50;4965567;28;20449;-72
2022/06/23 08:38:49;;;;;;;6.10;3.47;;;25.40;1.00;;;25.43;41.06;101001.41;4970925;28;20478;-71
2022/06/23 08:41:28;;;;;;;4.30;3.57;;;25.30;1.00;;;25.61;40.77;101003.41;4972066;28;20207;-72
2022/06/23 08:44:39;;;;;;;5.63;3.13;;;25.40;1.00;;;25.67;39.82;101001.38;4970255;28;20800;-72
2022/06/23 08:47:19;;;;;;;8.37;3.17;;;25.40;1.00;;;25.22;40.57;101000.88;4972141;28;20414;-71
2022/06/23 08:49:56;;;;;;;7.60;3.20;;;25.20;1.00;;;25.76;39.97;101002.34;4970153;28;20544;-71
2022/06/23 08:52:38;;;;;;;3.83;3.03;;;25.40;1.00;;;26.19;38.78;101006.63;4967505;28;20453;-72
2022/06/23 08:55:16;;;;;;;5.13;3.10;;;25.80;1.00;;;26.07;38.92;101000.75;4970162;28;20413;-71
2022/06/23 08:58:16;;;;;;;3.90;3.30;;;25.90;1.00;;;26.12;38.67;100997.88;4972173;28;20438;-72
2022/06/23 09:00:58;;;;;;;6.00;3.53;;;26.00;1.00;;;25.97;38.98;100995.34;4970990;28;20466;-72
2022/06/23 09:03:43;;;;;;;3.10;2.60;;;25.90;1.00;;;26.14;38.69;100995.59;4973228;28;20490;-71
2022/06/23 09:06:29;;;;;;;3.00;2.70;;;26.00;1.00;;;26.38;38.37;100984.44;4980043;28;20521;-72
2022/06/23 09:09:13;;;;;;;3.60;3.30;;;26.10;1.00;;;26.20;38.23;100983.31;4978851;28;20520;-72
2022/06/23 09:11:57;;;;;;;3.37;3.07;;;26.10;1.00;;;26.08;37.35;100985.75;4976623;28;20485;-70
2022/06/23 09:15:26;;;;;;;3.20;2.90;;;26.10;1.00;;;26.49;37.57;100985.03;4977265;28;20438;-71
2022/06/23 09:18:52;;;;;;;2.80;2.60;;;26.20;1.00;;;26.45;37.62;100982.06;4980092;28;20433;-71
2022/06/23 09:21:41;;;;;;;3.70;3.00;;;26.30;1.00;;;26.32;37.74;100986.47;4959041;28;20496;-72
2022/06/23 09:24:40;;;;;;;4.10;3.77;;;26.10;1.00;;;26.49;36.31;100969.22;4978401;28;20928;-72
2022/06/23 09:27:23;;;;;;;3.67;3.20;;;26.30;1.00;;;26.56;36.35;100974.38;4971961;28;20461;-71
2022/06/23 09:30:01;;;;;;;3.43;3.13;;;26.40;1.00;;;26.79;36.45;100971.41;4970655;28;20405;-72
2022/06/23 09:33:00;;;;;;;3.80;2.90;;;26.40;1.00;;;27.01;35.69;100964.34;4974818;28;20462;-71
2022/06/23 09:36:40;;;;;;;3.20;2.90;;;26.60;1.00;;;27.09;35.44;100960.81;4977221;28;20564;-71
2022/06/23 09:40:06;;;;;;;3.37;3.07;;;26.80;1.00;;;27.11;34.88;100958.56;4898446;29;20464;-71
2022/06/23 09:43:31;;;;;;;4.50;3.40;;;26.90;1.00;;;27.24;34.42;100960.47;4961247;28;20471;-72
2022/06/23 09:46:51;;;;;;;2.60;2.40;;;26.90;1.00;;;27.23;33.00;100958.84;4971096;28;20449;-72
2022/06/23 09:49:52;;;;;;;3.50;2.50;;;26.90;1.00;;;27.22;32.98;100966.34;4937828;28;20438;-72
2022/06/23 09:53:16;;;;;;;3.90;2.63;;;26.90;1.00;;;27.50;32.69;100958.78;4968069;28;20466;-72
2022/06/23 09:56:17;;;;;;;3.40;2.90;;;27.20;1.00;;;27.33;33.22;100950.28;4971829;28;20454;-72
2022/06/23 09:59:47;;;;;;;2.97;2.37;;;27.20;1.00;;;27.28;33.80;100946.78;4975538;28;20936;-71
2022/06/23 10:02:40;;;;;;;6.43;2.50;;;27.10;1.00;;;27.61;33.40;100951.84;4892238;29;20484;-72
2022/06/23 10:05:32;;;;;;;6.57;2.20;;;27.20;1.00;;;27.40;33.30;100955.41;4969247;28;20470;-72
2022/06/23 10:08:21;;;;;;;3.30;2.40;;;27.30;1.00;;;27.57;33.19;100950.03;4977385;28;20441;-73
2022/06/23 10:11:22;;;;;;;8.60;2.90;;;27.30;1.00;;;27.70;33.17;100949.13;4978057;28;20533;-71
2022/06/23 10:14:28;;;;;;;2.37;2.17;;;27.50;1.00;;;27.71;32.61;100944.41;4987424;28;20408;-70
2022/06/23 10:17:47;;;;;;;7.80;3.17;;;27.40;1.00;;;28.00;32.24;100945.59;4983055;28;20470;-71
2022/06/23 10:20:50;;;;;;;5.23;3.00;;;27.60;1.00;;;27.90;31.76;100939.47;4981217;28;20450;-71
2022/06/23 10:23:58;;;;;;;2.77;2.10;;;27.60;1.00;;;28.13;30.50;100943.09;4988473;28;20500;-71
2022/06/23 10:26:51;;;;;;;3.40;2.67;;;27.80;1.00;;;28.43;31.23;100945.03;4946332;28;20443;-72
2022/06/23 10:29:59;;;;;;;5.30;2.60;;;28.00;1.00;;;28.08;31.44;100944.81;4974236;28;20438;-72
2022/06/23 10:33:22;;;;;;;3.17;2.87;;;27.90;1.00;;;28.46;29.71;100942.47;4975376;28;20488;-71
2022/06/23 10:36:28;;;;;;;5.33;2.33;;;28.10;1.00;;;28.45;29.94;100934.44;4979570;28;20479;-71
2022/06/23 10:39:16;;;;;;;5.30;2.60;;;28.20;1.00;;;28.64;29.04;100935.00;4979552;28;20450;-70
2022/06/23 10:42:19;;;;;;;2.53;2.33;;;28.20;1.00;;;28.36;28.75;100947.47;4974032;28;20458;-72
2022/06/23 10:45:07;;;;;;;5.10;2.50;;;28.20;1.00;;;28.35;30.12;100945.84;4968136;28;20965;-72
2022/06/23 10:48:28;;;;;;;3.93;2.43;;;28.10;1.00;;;28.43;27.97;100945.03;4978711;28;20564;-72
2022/06/23 10:51:17;;;;;;;2.40;2.10;;;28.10;1.00;;;28.53;29.14;100945.59;4971079;28;20449;-72
2022/06/23 10:54:24;;;;;;;2.27;1.80;;;28.30;1.00;;;28.61;28.73;100941.19;4978510;28;20446;-72
2022/06/23 10:57:30;;;;;;;3.50;2.70;;;28.30;1.00;;;28.93;29.59;100935.28;4975413;28;20913;-71
2022/06/23 11:00:11;;;;;;;3.00;2.60;;;28.60;1.00;;;28.91;29.70;100931.16;4975116;28;21006;-71
2022/06/23 11:03:23;;;;;;;4.00;3.00;;;28.60;1.00;;;28.71;30.28;100929.78;4981350;28;20441;-72
2022/06/23 11:06:50;;;;;;;2.90;2.27;;;28.60;1.00;;;28.47;30.36;100938.50;4975684;28;20412;-71
2022/06/23 11:09:43;;;;;;;3.90;2.70;;;28.40;1.00;;;28.66;29.16;100927.13;4945336;28;20628;-71
2022/06/23 11:12:38;;;;;;;2.83;2.30;;;28.20;1.00;;;28.71;29.40;100926.19;4975866;28;20467;-71
2022/06/23 11:15:27;;;;;;;2.23;1.80;;;28.50;1.00;;;28.83;28.42;100932.78;4973717;28;20537;-72
2022/06/23 11:18:29;;;;;;;2.23;1.80;;;28.50;1.00;;;28.87;28.31;100927.38;4970897;28;20558;-72
2022/06/23 11:21:24;;;;;;;2.90;2.33;;;28.50;1.00;;;28.92;28.43;100918.88;4972782;28;20422;-72
2022/06/23 11:24:04;;;;;;;3.50;2.03;;;28.70;1.00;;;28.82;27.85;100921.97;4977954;28;20434;-72
2022/06/23 11:26:56;;;;;;;6.27;2.17;;;28.60;1.00;;;28.87;27.98;100917.06;4974144;28;20952;-72
2022/06/23 11:30:02;;;;;;;3.37;2.50;;;28.60;1.00;;;29.00;28.02;100920.06;4974600;28;20446;-71
2022/06/23 11:32:51;;;;;;;3.50;2.60;;;28.60;1.00;;;29.07;29.00;100909.25;4972817;28;20458;-71
2022/06/23 11:35:42;;;;;;;2.20;2.00;;;28.80;1.00;;;29.07;28.89;100914.81;4970055;28;20482;-71
2022/06/23 11:39:03;;;;;;;7.03;3.67;;;28.80;1.00;;;28.99;28.40;100910.88;4972439;28;20926;-71
2022/06/23 11:42:00;;;;;;;5.37;2.70;;;28.70;1.00;;;28.99;28.82;100918.41;4972823;28;20466;-72